Airfield :
LOGIN :

Register | Disclaimer

   EN    FR    IT 

 










Legend :    VFR   Marginal VFR   IFR   Intensive IFR   Very Intensive IFR
Visi :
Ceiling :
>= 8 km
>= 3000ft
5 to 8 km
1000 to 3000 ft
1500m to 5 km
500 to 1000 ft
800 to 1500m
200 to 500 ft
< 800m
< 200 ft
Symbols :   Thunderstorms  Fog  Heavy snow  Heavy precipitations  Wind > 20 kt
SIGMETs :     Misc.  Thunderstorms  Icing  Turbulence  Mountain Waves  Volcanic Ashes






- Airport Elevation : 1411 ft
- IATA code : GVA


LSGG - Genève Cointrin

CURRENT METAR :
  • 260850Z VRB02KT 9999 FEW040 SCT050 M00/M03 Q1023 R04/29//// NOSIG

EXPIRED METARs :
  • 260820Z VRB01KT 9999 FEW035 SCT045 M02/M04 Q1023 R04/29//// NOSIG
  • 260750Z VRB01KT 9999 SCT040 M02/M05 Q1023 R04/29//// NOSIG
  • 260720Z 35003KT 9999 SCT040 M03/M05 Q1022 R04/29//// NOSIG
  • 260650Z VRB01KT 9999 FEW040 M03/M06 Q1022 R04/29 NOSIG
  • 260620Z VRB02KT 9999 SCT040 M02/M06 Q1022 R04/29//// NOSIG

TAF TAF LSGG
Valid from the 26 at 09:00 until the 27 at 15:00 UTC


260825Z 2609/2715 VRB02KT 9999 SCT040 TX02/2614Z TNM02/2707Z TXM03/2714Z
BECMG 2609/2612 CAVOK
BECMG 2700/2702 9999 BKN050
ATIS : +41 22 417 40 81



MET'MAP, your aeronautical weather chart ! - Copyright ORBIFLY December 2007 - Disclaimer

ORBIFLY MET'MAP TEAM :

Programming & Development : Alexandra Zaïnal
Concept & original design : Baudouin d'Aumeries
Assistance for programming : Marc-Olivier Méhu
Technical & hardware support : Manuel Goepfert

Contact : metmap@orbifly.com




SOURCES & CREDITS :

   NOAA